Bodensee (Kressbronn): 7,2°C  -  Teich der Wetterzentrale Bad Schussenried: 5,0°C  
06.12.2019Höhe
ü. NN
ZeitTemperatur (°C)Nieder-
schlag
Luft-
feuchte
Luft-
druck
Wind
StationaktuellMinimumMaximumaktuellMaximum
Aldingen654 m05:46-4,4-5,8 (07:53)-3,5 (13:53)0,0 l/m²93%1024,73,7 km/h (1 Bft) SW11,1 km/h (2 Bft) O-SO (11:44)
Allmannsweiler625 m05:45-2,2-2,3 (05:40)-1,6 (00:35)0,0 l/m²99%1023,38,0 km/h (2 Bft) SW17,7 km/h (3 Bft) SW (03:30)
Allmendingen541 m05:45-1,8-2,3 (08:40)-1,6 (14:40)0,0 l/m²91%1023,114,5 km/h (3 Bft) SW19,3 km/h (3 Bft) W-SW (23:20)
Altshausen574 m05:45-2,3-2,3 (05:44)-1,0 (01:02)0,0 l/m²87%1022,13,2 km/h (1 Bft) SW14,5 km/h (3 Bft) S-SW (02:30)
Amstetten-Reutti663 m05:45-6,0-6,7 (08:20)-4,2 (12:55)0,0 l/m²95%1022,90,0 km/h (0 Bft) O-SO14,5 km/h (3 Bft) O (13:00)
Amtzell-Grenis677 m05:45-2,6-2,7 (04:50)-1,9 (00:00)0,0 l/m²81%1025,40,0 km/h (0 Bft) S-SW12,9 km/h (3 Bft) W-SW (00:05)
Aulendorf570 m05:45-1,1-1,1 (04:34)-0,6 (00:00)0,0 l/m²96%1022,79,7 km/h (2 Bft) W-SW22,5 km/h (4 Bft) S (03:02)
Bad Krozingen233 m05:454,7-1,9 (06:05)5,2 (03:45)0,2 l/m²84%1023,616,5 km/h (3 Bft) SW26,4 km/h (4 Bft) S-SW (03:30)
Bad Saulgau595 m05:45-2,1-2,3 (06:00)-1,1 (14:30)0,0 l/m²94%1022,36,4 km/h (2 Bft) NW17,7 km/h (3 Bft) N-NW (21:55)
Bad Saulgau-Lampertsweiler627 m05:45-2,8-2,8 (05:20)-1,5 (00:00)0,0 l/m²93%1025,90,0 km/h (0 Bft) S-SO20,9 km/h (4 Bft) S-SO (02:40)
Bad Schussenried572 m05:45-1,1-1,1 (04:50)-0,6 (01:00)0,0 l/m²98%1022,08,0 km/h (2 Bft) SW22,5 km/h (4 Bft) S-SW (03:10)
Bergatreute615 m05:45-1,5-1,7 (04:40)-0,3 (00:00)0,0 l/m²99%1023,46,4 km/h (2 Bft) S-SW11,3 km/h (2 Bft) S-SW (00:00)
Biberach (Riss), Boehringer533 m05:50-0,7-0,8 (05:50)0,0 (04:00)0,0 l/m²97%1021,710,1 km/h (2 Bft) W-SW25,9 km/h (4 Bft) W-SW (05:20)
Biberach (Riss), Realschule553 m05:45-1,1-1,2 (05:35)-0,7 (00:10)0,0 l/m²97%1024,025,7 km/h (4 Bft) S-SW29,0 km/h (5 Bft) W-SW (04:45)
Burgrieden523 m05:45-1,4-1,4 (02:15)-1,2 (00:00)0,0 l/m²92%1023,00,0 km/h (0 Bft) S-SW20,9 km/h (4 Bft) SW (00:20)
Burgrieden-Hochstetten510 m05:45-1,0-1,1 (06:10)-0,8 (21:25)0,0 l/m²93%1023,212,9 km/h (3 Bft) W-SW19,3 km/h (3 Bft) W-SW (05:10)
Ebersbach579 m05:45-1,3-1,3 (05:00)-0,8 (01:00)0,0 l/m²97%1024,316,1 km/h (3 Bft) S-SW22,5 km/h (4 Bft) S (02:50)
Ebersbach-Boos605 m05:45-2,1-2,1 (05:15)-1,4 (00:55)0,0 l/m²98%1024,10,0 km/h (0 Bft) S-SW12,9 km/h (3 Bft) S (02:45)
Ebersbach-Menzenweiler661 m05:45-1,8-1,9 (05:00)-1,4 (01:05)0,0 l/m²99%1024,012,9 km/h (3 Bft) S-SW14,5 km/h (3 Bft) S (03:25)
Erlenmoos645 m05:45-1,9-2,2 (04:15)-0,3 (01:05)0,0 l/m²93%1023,114,5 km/h (3 Bft) SW17,7 km/h (3 Bft) SW (02:10)
Ertingen569 m05:45-1,5-1,5 (05:45)-1,3 (00:00)0,0 l/m²97%1023,38,0 km/h (2 Bft) S-SW16,1 km/h (3 Bft) S (00:05)
Friedrichshafen405 m05:45-0,1-0,3 (05:15)1,0 (21:10)0,0 l/m²94%1024,61,6 km/h (1 Bft) W-NW11,3 km/h (2 Bft) W-NW (20:30)
Günzburg443 m05:45-0,6-0,7 (01:15)-0,4 (00:00)0,0 l/m²92%1020,36,4 km/h (2 Bft) N14,5 km/h (3 Bft) W (00:15)
Hochdorf-Appendorf537 m05:45-0,9-1,1 (02:45)-0,7 (00:00)0,0 l/m²79%1030,830,6 km/h (5 Bft) S37,0 km/h (5 Bft) S (04:20)
Höchsten802 m05:45-2,8-2,8 (04:40)-2,0 (00:00)0,0 l/m²93%1021,76,4 km/h (2 Bft) S-SW9,7 km/h (2 Bft) S-SW (00:05)
Horgenzell618 m05:45-1,8-1,8 (03:10)-1,1 (00:05)0,0 l/m²97%1022,39,7 km/h (2 Bft) SW24,1 km/h (4 Bft) S-SO (02:20)
Hoßkirch632 m05:45-5,2-5,2 (05:30)-1,5 (00:45)0,0 l/m²96%1022,60,0 km/h (0 Bft) W12,9 km/h (3 Bft) W (00:35)
Isny, Am Dreifingerbach695 m05:45-6,6-7,7 (03:30)-5,9 (00:40)0,0 l/m²94%1024,30,0 km/h (0 Bft) W-NW0,0 km/h (0 Bft) N (05:45)
Isny, Weidachweg706 m05:45-4,8-5,7 (02:30)-4,3 (03:10)0,0 l/m²89%1025,93,2 km/h (1 Bft) S-SW11,3 km/h (2 Bft) SO (04:20)
Kappel-Grafenhausen163 m05:40-4,7-4,7 (07:25)-3,6 (14:00)0,0 l/m²94%1021,10,0 km/h (0 Bft) N14,5 km/h (3 Bft) N-NW (14:20)
Kirchberg an der Iller584 m05:45-1,7-2,1 (04:50)-0,7 (13:45)0,0 l/m²85%1012,43,9 km/h (1 Bft) O12,4 km/h (3 Bft) O-NO (05:20)
Kißlegg-Staibshof709 m05:45-3,2-3,2 (05:35)0,0 (00:15)0,0 l/m²98%1024,10,0 km/h (0 Bft) SW0,0 km/h (0 Bft) N (00:00)
Kressbronn398 m05:460,3-0,3 (00:00)0,3 (04:12)0,0 l/m²94%1023,23,2 km/h (1 Bft) O-SO9,7 km/h (2 Bft) O-SO (00:18)
Kreuzthal-Steinberg-Alpe930 m05:402,21,8 (05:30)4,8 (01:30)0,0 l/m²76%1024,02,9 km/h (1 Bft) N-NW22,0 km/h (4 Bft) W-NW (01:00)
Kreuzthal-Steinberggipfel1040 m05:403,12,6 (05:30)5,3 (01:10)-61%1024,022,7 km/h (4 Bft) SW48,2 km/h (6 Bft) W-SW (01:40)
Kristberg im Montafon (AT)1425 m05:453,22,3 (01:05)4,4 (02:00)0,0 l/m²36%1020,20,0 km/h (0 Bft) N-NO6,4 km/h (2 Bft) N (00:05)
Laupheim500 m05:45-1,4-1,4 (05:45)-0,8 (01:15)0,0 l/m²92%1022,514,5 km/h (3 Bft) W-SW22,5 km/h (4 Bft) SW (00:45)
Leutkirch-Heggelbach670 m05:45-3,7-3,9 (04:15)-2,4 (00:00)0,0 l/m²93%1022,70,0 km/h (0 Bft) W-SW9,7 km/h (2 Bft) S-SW (01:25)
Lindau-Stadt412 m05:45-0,3-0,3 (23:15)-0,1 (15:00)0,0 l/m²95%1024,14,8 km/h (1 Bft) S-SW9,7 km/h (2 Bft) SW (22:10)
Maierhöfen im Allgäu733 m05:45-6,7-7,0 (04:15)-6,0 (00:00)0,0 l/m²94%1024,60,0 km/h (0 Bft) W-SW3,2 km/h (1 Bft) W-SW (05:35)
Maselheim543 m05:45-1,2-1,3 (07:35)-1,0 (23:35)0,0 l/m²94%1023,014,5 km/h (3 Bft) W-SW25,7 km/h (4 Bft) W-SW (21:45)
Maselheim-Sulmingen548 m05:45-1,3-1,3 (06:05)-0,9 (14:10)0,0 l/m²96%1024,216,1 km/h (3 Bft) SW24,1 km/h (4 Bft) SW (23:20)
Mietingen-Baltringen528 m05:45-1,2-1,3 (00:55)-0,8 (02:40)0,0 l/m²93%1024,716,1 km/h (3 Bft) S-SW22,5 km/h (4 Bft) W-SW (03:50)
Mindelheim-Apfeltrach620 m05:46-6,2-6,3 (03:57)-4,4 (00:00)0,0 l/m²92%1024,00,0 km/h (0 Bft) S-SO6,4 km/h (2 Bft) S (00:02)
Mittelbiberach577 m05:46-1,4-1,5 (05:11)-1,1 (00:00)0,0 l/m²96%1024,30,0 km/h (0 Bft) SW0,0 km/h (0 Bft) SW (01:00)
Neresheim552 m05:00-3,4-3,4 (05:00)-2,0 (01:00)0,0 l/m²100%1019,26,5 km/h (2 Bft) S-SW6,5 km/h (2 Bft) S-SW (05:00)
Neukirch570 m05:45-1,0-1,4 (23:50)-0,9 (14:30)0,0 l/m²97%1023,96,4 km/h (2 Bft) S11,3 km/h (2 Bft) W-SW (19:50)
Ochsenhausen, Birkenstraße613 m05:45-1,3-1,5 (07:05)-0,4 (14:25)0,0 l/m²91%1023,60,0 km/h (0 Bft) N0,0 km/h (0 Bft) N (06:00)
Ochsenhausen, Unt. Wiesen575 m05:45-1,4-1,6 (03:45)-0,6 (00:10)0,0 l/m²95%1024,420,9 km/h (4 Bft) W-SW27,4 km/h (4 Bft) SW (05:35)
Ravensburg, Goethestraße428 m05:50-0,3-0,3 (05:40)0,7 (00:55)0,0 l/m²95%1023,216,1 km/h (3 Bft) SW20,9 km/h (4 Bft) S-SW (03:40)
Ravensburg, Springerstraße441 m05:450,30,3 (05:35)1,1 (00:00)0,0 l/m²86%1021,22,1 km/h (1 Bft) N-NO10,0 km/h (2 Bft) W-SW (03:25)
Ravensburg-Wernsreute511 m05:45-1,2-1,3 (05:05)-0,1 (13:10)0,0 l/m²97%1026,214,5 km/h (3 Bft) S-SW20,9 km/h (4 Bft) S-SW (02:35)
Reichenbach an der Fils343 m05:40-5,6-5,6 (05:40)-3,2 (00:00)0,0 l/m²88%1024,20,0 km/h (0 Bft) N4,8 km/h (1 Bft) NO (00:00)
Reinstetten559 m05:45-1,1-1,3 (04:15)-0,7 (00:05)0,0 l/m²95%1023,517,7 km/h (3 Bft) N22,5 km/h (4 Bft) N (01:30)
Riedlingen530 m05:45-1,6-1,6 (05:35)-1,1 (01:55)0,0 l/m²95%1023,412,9 km/h (3 Bft) S19,3 km/h (3 Bft) W-SW (05:40)
Rißtissen489 m05:45-0,6-0,7 (01:20)-0,4 (00:00)0,0 l/m²96%1020,519,3 km/h (3 Bft) SW19,3 km/h (3 Bft) W-SW (05:45)
Schemmerhofen520 m05:45-1,0-1,0 (05:40)-0,7 (00:39)0,0 l/m²96%1022,711,3 km/h (2 Bft) W-SW17,7 km/h (3 Bft) W-SW (00:15)
Silbertal im Montafon (AT)884 m05:45-2,2-2,3 (00:00)-1,9 (02:20)0,0 l/m²90%1025,20,0 km/h (0 Bft) W-NW0,0 km/h (0 Bft) W-NW (00:00)
Tettnang466 m05:45-0,7-0,7 (05:45)0,1 (01:30)0,0 l/m²96%1024,14,8 km/h (1 Bft) W-NW11,3 km/h (2 Bft) SW (02:00)
Tuttlingen662 m05:38-3,9-4,7 (02:58)-3,4 (00:03)0,0 l/m²82%1022,70,0 km/h (0 Bft) N-NO0,0 km/h (0 Bft) N-NO (00:03)
Tuttlingen, Möhringer-Vorstadt711 m05:45-3,2-3,9 (08:30)-3,1 (13:15)0,0 l/m²96%1024,01,6 km/h (1 Bft) SW9,7 km/h (2 Bft) W (12:35)
Ummendorf547 m05:45-0,9-1,1 (02:15)-0,6 (00:00)0,0 l/m²89%1024,320,9 km/h (4 Bft) W-SW29,0 km/h (5 Bft) W-SW (04:45)
Ummendorf-Fischbach558 m05:45-1,1-1,3 (02:20)-0,6 (00:00)0,0 l/m²87%1024,017,7 km/h (3 Bft) S19,3 km/h (3 Bft) S-SW (01:40)
Waldburg707 m05:45-2,3-2,3 (05:20)-1,1 (00:00)0,0 l/m²97%1023,80,0 km/h (0 Bft) N8,0 km/h (2 Bft) N (01:05)
Waltenhofen im Allgäu720 m05:40-4,7-5,0 (03:35)-3,0 (00:00)0,0 l/m²92%1023,13,2 km/h (1 Bft) S-SO9,7 km/h (2 Bft) S-SO (21:30)
Wangen, Hans-Schnitzer-Weg569 m05:45-1,8-1,8 (05:45)-0,8 (00:00)0,0 l/m²69%1022,80,0 km/h (0 Bft) SO6,4 km/h (2 Bft) S-SW (00:35)
Weingarten500 m05:45-0,5-0,5 (05:35)0,3 (00:00)0,0 l/m²96%1023,411,3 km/h (2 Bft) SW22,5 km/h (4 Bft) S-SO (02:50)
Winterlingen785 m05:30-6,5-6,7 (03:30)-5,7 (00:00)0,0 l/m²95%1022,50,0 km/h (0 Bft) N2,5 km/h (1 Bft) W-NW (02:35)

Werbung
niederschlagsdatenbank | info | login - erfassung

Sollten Sie Interesse haben, an der Niederschlagsdatenbank teilzunehmen, finden Sie > hier < weitere Informationen.

Niederschlagsdaten der Station Ehingen - Zanderstraße

Manfred Doser

Niederschlagsstation aufgenommen ins Stationsnetz der Wetterwarte Süd am 17.05.2009
Monat: .
Anmerkung:0,0 = nicht messbarer Niederschlag
 -  = kein Niederschlag

Stationsdaten

Höhe

535 m

Lage

Auf Google Maps ansehen

Beschreibung

Die Wetterstation befindet sich im äußersten Stadtgebiet von Ehingen in der Nähe von Nasgenstadt in einer Höhe von 535 Meter über NN. Als Wetterstation wird die WMR 928 N verwendet die mit der WSWin-Aufzeichnungssoftware V2.94.02 die Wetterdaten auf dem PC aufgezeichnet. Der Temperatur-Sensor befindet sich in einer selbst gebauten Wetterhütte, die sich in einer Höhe von 2 Metern befindet. Der Regenmesser wurde die Messfläche auf 200 mm vergrößert, die eine Regenauflösung von 0,310 mm statt 1 mm nun erreicht. Die Wetterdaten stehen seit 2002 auf der Webseite zur Verfügung. Die Wetterdaten werden an WetterarchivWetter.com, Awekas, Wedaal, und Wetterpage24 übersendet.

Wetterstation-Ehingen
< Mai 2019Juli 2019 >

Juni 2019

TagNiederschlagBemerkung
01.-
02.-
03.-
04.-
05.-
06.-
07.-
08.-
09.2,0
Regen
10.32,3
Regen
11.-
12.1,5
Regen
13.-
14.-
15.18,0
Regen
16.-
17.-
18.-
19.2,0
20.-
21.0,2
22.6,7
Regen
23.-
24.-
25.-
26.-
27.-
28.-
29.-
30.-
Gesamt:62,7 
Die Spalten "Tag" und "Niederschlag" lassen sich durch Klicken auf den Spaltenkopf sortieren.
Die Angaben sind in l/m².

< Mai 2019Juli 2019 >


Monats- und Jahresniederschlag


Wetterbeobachtungen Legende:

  • Regen
  • Nieselregen
  • Schneeregen
  • Schnee
  • Graupel
  • Eiskörner
  • Hagel
  • Bodennebel
  • Gewitter
  • Nebelnässe
  • Schneegriesel

Grafische Darstellung der Niederschläge der Station Ehingen Juni 2019

 
wetterstationen
wetterstationen
- derzeit 78 Stationen
niederschlagsdatenbank
wetterstationen
- kartographische Darstellung
niederschlagsdatenbank
niederschlagsstationen
- derzeit 110 Stationen
niederschlagsdatenbank
niederschlagsstationen
- kartographische Darstellung
 
 
Do. 7.30 Uhr - Fr. 7.30 Uhr (MEZ)
1.Weingarten
Laurastraße
0,0 l/m²
 
  treffpunkt & service
--- Anzeigen --------------------------------
zugriffe:
insgesamt: 45.244.762
aktueller monat: 51.704
heute: 339
momentan online: 24
 
 
monatshöchstwert: 653.625
vorheriger monat: 372.551
gestern: 13.206
tageshöchstwert: 51.297
 
wetterwarte süd
 
konradstraße 3
info@wetterwarte-sued.com
roland roth
 
88427 bad schussenried